sensor_id;sensor_type;location;lat;lon;timestamp;P1;durP1;ratioP1;P2;durP2;ratioP2
29026;SDS011;16120;48.608;9.092;2023-04-25T00:00:07;78.00;;;5.40;;
29026;SDS011;16120;48.608;9.092;2023-04-25T00:04:02;78.10;;;5.40;;
29026;SDS011;16120;48.608;9.092;2023-04-25T00:07:58;78.53;;;5.30;;
29026;SDS011;16120;48.608;9.092;2023-04-25T00:11:54;77.80;;;5.10;;
29026;SDS011;16120;48.608;9.092;2023-04-25T00:15:49;77.87;;;4.77;;
29026;SDS011;16120;48.608;9.092;2023-04-25T00:19:45;76.37;;;4.70;;
29026;SDS011;16120;48.608;9.092;2023-04-25T00:23:40;77.70;;;5.00;;
29026;SDS011;16120;48.608;9.092;2023-04-25T00:27:37;77.97;;;4.97;;
29026;SDS011;16120;48.608;9.092;2023-04-25T00:31:32;78.90;;;4.97;;
29026;SDS011;16120;48.608;9.092;2023-04-25T00:35:27;81.20;;;6.37;;
29026;SDS011;16120;48.608;9.092;2023-04-25T00:39:22;77.13;;;5.00;;
29026;SDS011;16120;48.608;9.092;2023-04-25T00:43:19;85.67;;;5.80;;
29026;SDS011;16120;48.608;9.092;2023-04-25T00:47:14;76.53;;;5.33;;
29026;SDS011;16120;48.608;9.092;2023-04-25T00:51:10;83.70;;;5.83;;
29026;SDS011;16120;48.608;9.092;2023-04-25T00:55:08;77.17;;;5.30;;
29026;SDS011;16120;48.608;9.092;2023-04-25T00:59:06;78.63;;;6.10;;
29026;SDS011;16120;48.608;9.092;2023-04-25T01:03:01;78.30;;;6.00;;
29026;SDS011;16120;48.608;9.092;2023-04-25T01:06:56;78.70;;;6.03;;
29026;SDS011;16120;48.608;9.092;2023-04-25T01:10:52;78.67;;;5.50;;
29026;SDS011;16120;48.608;9.092;2023-04-25T01:14:50;79.80;;;5.23;;
29026;SDS011;16120;48.608;9.092;2023-04-25T01:18:46;80.17;;;5.27;;
29026;SDS011;16120;48.608;9.092;2023-04-25T01:22:43;80.87;;;6.10;;
29026;SDS011;16120;48.608;9.092;2023-04-25T01:26:38;81.20;;;6.83;;
29026;SDS011;16120;48.608;9.092;2023-04-25T01:30:34;79.30;;;5.70;;
29026;SDS011;16120;48.608;9.092;2023-04-25T01:34:30;79.03;;;6.43;;
29026;SDS011;16120;48.608;9.092;2023-04-25T01:38:27;77.70;;;5.53;;
29026;SDS011;16120;48.608;9.092;2023-04-25T01:42:22;79.23;;;5.90;;
29026;SDS011;16120;48.608;9.092;2023-04-25T01:46:17;85.20;;;6.60;;
29026;SDS011;16120;48.608;9.092;2023-04-25T01:50:12;79.07;;;6.00;;
29026;SDS011;16120;48.608;9.092;2023-04-25T01:54:09;79.00;;;5.87;;
29026;SDS011;16120;48.608;9.092;2023-04-25T01:58:05;78.87;;;5.83;;
29026;SDS011;16120;48.608;9.092;2023-04-25T02:02:00;83.43;;;6.43;;
29026;SDS011;16120;48.608;9.092;2023-04-25T02:05:55;81.90;;;5.80;;
29026;SDS011;16120;48.608;9.092;2023-04-25T02:09:52;79.93;;;5.80;;
29026;SDS011;16120;48.608;9.092;2023-04-25T02:13:47;80.40;;;5.57;;
29026;SDS011;16120;48.608;9.092;2023-04-25T02:17:42;81.57;;;5.60;;
29026;SDS011;16120;48.608;9.092;2023-04-25T02:21:38;81.30;;;6.00;;
29026;SDS011;16120;48.608;9.092;2023-04-25T02:25:34;78.27;;;5.13;;
29026;SDS011;16120;48.608;9.092;2023-04-25T02:29:29;78.90;;;5.43;;
29026;SDS011;16120;48.608;9.092;2023-04-25T02:33:24;78.47;;;5.40;;
29026;SDS011;16120;48.608;9.092;2023-04-25T02:37:20;78.97;;;6.10;;
29026;SDS011;16120;48.608;9.092;2023-04-25T02:41:16;77.37;;;4.90;;
29026;SDS011;16120;48.608;9.092;2023-04-25T02:45:11;79.67;;;5.77;;
29026;SDS011;16120;48.608;9.092;2023-04-25T02:49:07;78.20;;;5.45;;
29026;SDS011;16120;48.608;9.092;2023-04-25T02:53:02;78.93;;;5.63;;
29026;SDS011;16120;48.608;9.092;2023-04-25T02:56:58;81.57;;;5.37;;
29026;SDS011;16120;48.608;9.092;2023-04-25T03:00:54;79.10;;;5.80;;
29026;SDS011;16120;48.608;9.092;2023-04-25T03:04:49;78.47;;;5.50;;
29026;SDS011;16120;48.608;9.092;2023-04-25T03:08:44;80.40;;;5.60;;
29026;SDS011;16120;48.608;9.092;2023-04-25T03:12:41;82.50;;;5.93;;
29026;SDS011;16120;48.608;9.092;2023-04-25T03:16:36;77.87;;;5.17;;
29026;SDS011;16120;48.608;9.092;2023-04-25T03:20:31;81.77;;;5.60;;
29026;SDS011;16120;48.608;9.092;2023-04-25T03:24:26;78.50;;;5.80;;
29026;SDS011;16120;48.608;9.092;2023-04-25T03:28:23;79.90;;;5.10;;
29026;SDS011;16120;48.608;9.092;2023-04-25T03:32:18;77.40;;;5.70;;
29026;SDS011;16120;48.608;9.092;2023-04-25T03:36:13;80.45;;;6.18;;
29026;SDS011;16120;48.608;9.092;2023-04-25T03:40:09;82.87;;;6.67;;
29026;SDS011;16120;48.608;9.092;2023-04-25T03:44:05;76.90;;;5.60;;
29026;SDS011;16120;48.608;9.092;2023-04-25T03:48:01;81.17;;;6.30;;
29026;SDS011;16120;48.608;9.092;2023-04-25T03:51:56;79.23;;;6.53;;
29026;SDS011;16120;48.608;9.092;2023-04-25T03:55:51;78.55;;;5.97;;
29026;SDS011;16120;48.608;9.092;2023-04-25T03:59:48;79.67;;;6.50;;
29026;SDS011;16120;48.608;9.092;2023-04-25T04:03:43;79.30;;;6.63;;
29026;SDS011;16120;48.608;9.092;2023-04-25T04:07:38;79.10;;;6.20;;
29026;SDS011;16120;48.608;9.092;2023-04-25T04:11:33;82.90;;;5.93;;
29026;SDS011;16120;48.608;9.092;2023-04-25T04:15:30;84.43;;;5.90;;
29026;SDS011;16120;48.608;9.092;2023-04-25T04:19:25;79.20;;;6.30;;
29026;SDS011;16120;48.608;9.092;2023-04-25T04:23:20;83.10;;;6.60;;
29026;SDS011;16120;48.608;9.092;2023-04-25T04:27:16;79.57;;;5.75;;
29026;SDS011;16120;48.608;9.092;2023-04-25T04:31:13;79.37;;;5.57;;
29026;SDS011;16120;48.608;9.092;2023-04-25T04:35:08;78.47;;;5.47;;
29026;SDS011;16120;48.608;9.092;2023-04-25T04:39:04;80.53;;;5.80;;
29026;SDS011;16120;48.608;9.092;2023-04-25T04:42:59;79.10;;;6.63;;
29026;SDS011;16120;48.608;9.092;2023-04-25T04:46:55;81.22;;;5.65;;
29026;SDS011;16120;48.608;9.092;2023-04-25T04:50:51;79.67;;;5.70;;
29026;SDS011;16120;48.608;9.092;2023-04-25T04:54:46;82.50;;;5.57;;
29026;SDS011;16120;48.608;9.092;2023-04-25T04:58:41;81.20;;;6.97;;
29026;SDS011;16120;48.608;9.092;2023-04-25T05:02:38;81.43;;;5.38;;
29026;SDS011;16120;48.608;9.092;2023-04-25T05:06:33;83.87;;;6.23;;
29026;SDS011;16120;48.608;9.092;2023-04-25T05:10:28;80.78;;;6.25;;
29026;SDS011;16120;48.608;9.092;2023-04-25T05:14:23;80.77;;;6.30;;
29026;SDS011;16120;48.608;9.092;2023-04-25T05:18:20;80.37;;;6.20;;
29026;SDS011;16120;48.608;9.092;2023-04-25T05:22:15;78.47;;;5.70;;
29026;SDS011;16120;48.608;9.092;2023-04-25T05:26:10;85.07;;;6.40;;
29026;SDS011;16120;48.608;9.092;2023-04-25T05:30:06;79.90;;;6.07;;
29026;SDS011;16120;48.608;9.092;2023-04-25T05:34:03;81.00;;;6.53;;
29026;SDS011;16120;48.608;9.092;2023-04-25T05:37:58;85.23;;;6.60;;
29026;SDS011;16120;48.608;9.092;2023-04-25T05:41:53;79.97;;;6.47;;
29026;SDS011;16120;48.608;9.092;2023-04-25T05:45:49;80.77;;;6.33;;
29026;SDS011;16120;48.608;9.092;2023-04-25T05:49:45;80.85;;;6.40;;
29026;SDS011;16120;48.608;9.092;2023-04-25T05:53:40;79.80;;;6.33;;
29026;SDS011;16120;48.608;9.092;2023-04-25T05:57:36;79.87;;;6.10;;
29026;SDS011;16120;48.608;9.092;2023-04-25T06:01:31;80.40;;;6.18;;
29026;SDS011;16120;48.608;9.092;2023-04-25T06:05:28;80.17;;;5.83;;
29026;SDS011;16120;48.608;9.092;2023-04-25T06:09:23;79.93;;;6.70;;
29026;SDS011;16120;48.608;9.092;2023-04-25T06:13:18;80.53;;;6.07;;
29026;SDS011;16120;48.608;9.092;2023-04-25T06:17:14;78.97;;;6.00;;
29026;SDS011;16120;48.608;9.092;2023-04-25T06:21:11;79.60;;;6.63;;
29026;SDS011;16120;48.608;9.092;2023-04-25T06:25:06;80.47;;;6.43;;
29026;SDS011;16120;48.608;9.092;2023-04-25T06:29:02;79.57;;;5.80;;
29026;SDS011;16120;48.608;9.092;2023-04-25T06:32:57;78.22;;;6.35;;
29026;SDS011;16120;48.608;9.092;2023-04-25T06:36:53;78.87;;;5.77;;
29026;SDS011;16120;48.608;9.092;2023-04-25T06:40:49;79.00;;;5.93;;
29026;SDS011;16120;48.608;9.092;2023-04-25T06:44:44;81.50;;;6.73;;
29026;SDS011;16120;48.608;9.092;2023-04-25T06:48:39;80.43;;;6.78;;
29026;SDS011;16120;48.608;9.092;2023-04-25T06:52:36;81.50;;;6.13;;
29026;SDS011;16120;48.608;9.092;2023-04-25T06:56:31;80.30;;;6.10;;
29026;SDS011;16120;48.608;9.092;2023-04-25T07:00:26;79.77;;;6.33;;
29026;SDS011;16120;48.608;9.092;2023-04-25T07:04:21;81.60;;;6.60;;
29026;SDS011;16120;48.608;9.092;2023-04-25T07:08:18;79.37;;;6.53;;
29026;SDS011;16120;48.608;9.092;2023-04-25T07:12:13;79.67;;;6.77;;
29026;SDS011;16120;48.608;9.092;2023-04-25T07:16:08;79.30;;;6.60;;
29026;SDS011;16120;48.608;9.092;2023-04-25T07:20:04;82.40;;;7.00;;
29026;SDS011;16120;48.608;9.092;2023-04-25T07:24:01;78.23;;;6.17;;
29026;SDS011;16120;48.608;9.092;2023-04-25T07:27:56;80.10;;;6.50;;
29026;SDS011;16120;48.608;9.092;2023-04-25T07:31:51;79.57;;;6.40;;
29026;SDS011;16120;48.608;9.092;2023-04-25T07:35:46;77.60;;;6.27;;
29026;SDS011;16120;48.608;9.092;2023-04-25T07:39:43;79.15;;;7.43;;
29026;SDS011;16120;48.608;9.092;2023-04-25T07:43:38;79.70;;;7.43;;
29026;SDS011;16120;48.608;9.092;2023-04-25T07:47:33;86.35;;;9.15;;
29026;SDS011;16120;48.608;9.092;2023-04-25T07:51:28;83.77;;;8.40;;
29026;SDS011;16120;48.608;9.092;2023-04-25T07:55:25;81.82;;;7.97;;
29026;SDS011;16120;48.608;9.092;2023-04-25T07:59:20;83.17;;;7.83;;
29026;SDS011;16120;48.608;9.092;2023-04-25T08:03:15;79.97;;;6.93;;
29026;SDS011;16120;48.608;9.092;2023-04-25T08:07:10;79.27;;;6.70;;
29026;SDS011;16120;48.608;9.092;2023-04-25T08:11:07;80.50;;;6.50;;
29026;SDS011;16120;48.608;9.092;2023-04-25T08:15:03;80.00;;;7.03;;
29026;SDS011;16120;48.608;9.092;2023-04-25T08:18:58;79.17;;;6.93;;
29026;SDS011;16120;48.608;9.092;2023-04-25T08:22:54;82.90;;;7.23;;
29026;SDS011;16120;48.608;9.092;2023-04-25T08:26:50;81.13;;;7.53;;
29026;SDS011;16120;48.608;9.092;2023-04-25T08:30:45;79.90;;;6.83;;
29026;SDS011;16120;48.608;9.092;2023-04-25T08:34:41;80.70;;;7.20;;
29026;SDS011;16120;48.608;9.092;2023-04-25T08:38:36;81.53;;;7.30;;
29026;SDS011;16120;48.608;9.092;2023-04-25T08:42:32;80.27;;;6.70;;
29026;SDS011;16120;48.608;9.092;2023-04-25T08:46:28;80.80;;;7.10;;
29026;SDS011;16120;48.608;9.092;2023-04-25T08:50:23;79.20;;;7.17;;
29026;SDS011;16120;48.608;9.092;2023-04-25T08:54:20;79.22;;;6.13;;
29026;SDS011;16120;48.608;9.092;2023-04-25T08:58:17;81.07;;;6.73;;
29026;SDS011;16120;48.608;9.092;2023-04-25T09:02:13;80.17;;;6.40;;
29026;SDS011;16120;48.608;9.092;2023-04-25T09:06:08;80.20;;;6.63;;
29026;SDS011;16120;48.608;9.092;2023-04-25T09:10:04;81.90;;;7.27;;
29026;SDS011;16120;48.608;9.092;2023-04-25T09:14:13;82.40;;;8.23;;
29026;SDS011;16120;48.608;9.092;2023-04-25T09:18:09;81.00;;;6.00;;
29026;SDS011;16120;48.608;9.092;2023-04-25T09:22:04;84.60;;;7.37;;
29026;SDS011;16120;48.608;9.092;2023-04-25T09:25:59;81.00;;;6.57;;
29026;SDS011;16120;48.608;9.092;2023-04-25T09:29:57;81.53;;;7.70;;
29026;SDS011;16120;48.608;9.092;2023-04-25T09:33:58;81.80;;;7.33;;
29026;SDS011;16120;48.608;9.092;2023-04-25T09:37:53;83.30;;;8.00;;
29026;SDS011;16120;48.608;9.092;2023-04-25T09:41:53;81.50;;;7.13;;
29026;SDS011;16120;48.608;9.092;2023-04-25T09:45:50;81.87;;;6.03;;
29026;SDS011;16120;48.608;9.092;2023-04-25T09:49:45;83.40;;;6.40;;
29026;SDS011;16120;48.608;9.092;2023-04-25T09:53:41;78.37;;;5.63;;
29026;SDS011;16120;48.608;9.092;2023-04-25T09:57:36;79.03;;;5.27;;
29026;SDS011;16120;48.608;9.092;2023-04-25T10:01:33;78.03;;;5.17;;
29026;SDS011;16120;48.608;9.092;2023-04-25T10:05:30;77.30;;;5.07;;
29026;SDS011;16120;48.608;9.092;2023-04-25T10:09:25;81.80;;;4.73;;
29026;SDS011;16120;48.608;9.092;2023-04-25T10:13:21;79.57;;;5.13;;
29026;SDS011;16120;48.608;9.092;2023-04-25T10:17:17;79.80;;;5.50;;
29026;SDS011;16120;48.608;9.092;2023-04-25T10:21:14;77.07;;;4.80;;
29026;SDS011;16120;48.608;9.092;2023-04-25T10:25:11;77.10;;;4.73;;
29026;SDS011;16120;48.608;9.092;2023-04-25T10:29:06;76.57;;;4.53;;
29026;SDS011;16120;48.608;9.092;2023-04-25T10:33:03;77.37;;;4.07;;
29026;SDS011;16120;48.608;9.092;2023-04-25T10:37:11;80.60;;;5.40;;
29026;SDS011;16120;48.608;9.092;2023-04-25T10:41:08;77.10;;;4.20;;
29026;SDS011;16120;48.608;9.092;2023-04-25T10:45:04;78.50;;;4.60;;
29026;SDS011;16120;48.608;9.092;2023-04-25T10:49:02;77.37;;;4.13;;
29026;SDS011;16120;48.608;9.092;2023-04-25T10:52:57;76.87;;;3.87;;
29026;SDS011;16120;48.608;9.092;2023-04-25T11:01:19;76.40;;;4.37;;
29026;SDS011;16120;48.608;9.092;2023-04-25T11:05:20;77.17;;;4.40;;
29026;SDS011;16120;48.608;9.092;2023-04-25T11:09:16;80.17;;;4.60;;
29026;SDS011;16120;48.608;9.092;2023-04-25T11:13:11;76.90;;;4.67;;
29026;SDS011;16120;48.608;9.092;2023-04-25T11:17:06;76.77;;;4.00;;
29026;SDS011;16120;48.608;9.092;2023-04-25T11:21:03;77.33;;;4.10;;
29026;SDS011;16120;48.608;9.092;2023-04-25T11:25:01;76.23;;;3.90;;
29026;SDS011;16120;48.608;9.092;2023-04-25T11:28:59;76.67;;;3.60;;
29026;SDS011;16120;48.608;9.092;2023-04-25T11:32:54;76.47;;;3.90;;
29026;SDS011;16120;48.608;9.092;2023-04-25T11:36:50;76.37;;;4.10;;
29026;SDS011;16120;48.608;9.092;2023-04-25T11:40:49;77.70;;;4.10;;
29026;SDS011;16120;48.608;9.092;2023-04-25T11:44:44;76.63;;;4.10;;
29026;SDS011;16120;48.608;9.092;2023-04-25T11:48:39;78.80;;;4.37;;
29026;SDS011;16120;48.608;9.092;2023-04-25T11:52:36;75.53;;;4.03;;
29026;SDS011;16120;48.608;9.092;2023-04-25T11:56:32;74.90;;;3.50;;
29026;SDS011;16120;48.608;9.092;2023-04-25T12:00:27;76.17;;;3.93;;
29026;SDS011;16120;48.608;9.092;2023-04-25T12:04:23;74.60;;;3.73;;
29026;SDS011;16120;48.608;9.092;2023-04-25T12:08:19;75.47;;;3.70;;
29026;SDS011;16120;48.608;9.092;2023-04-25T12:12:15;76.00;;;4.10;;
29026;SDS011;16120;48.608;9.092;2023-04-25T12:16:10;77.53;;;4.80;;
29026;SDS011;16120;48.608;9.092;2023-04-25T12:20:06;75.97;;;3.70;;
29026;SDS011;16120;48.608;9.092;2023-04-25T12:24:13;75.73;;;4.43;;
29026;SDS011;16120;48.608;9.092;2023-04-25T12:28:13;76.80;;;4.20;;
29026;SDS011;16120;48.608;9.092;2023-04-25T12:32:08;76.57;;;4.40;;
29026;SDS011;16120;48.608;9.092;2023-04-25T12:36:04;76.30;;;4.57;;
29026;SDS011;16120;48.608;9.092;2023-04-25T12:40:00;76.90;;;5.40;;
29026;SDS011;16120;48.608;9.092;2023-04-25T12:43:56;76.80;;;5.07;;
29026;SDS011;16120;48.608;9.092;2023-04-25T12:47:51;77.13;;;5.30;;
29026;SDS011;16120;48.608;9.092;2023-04-25T12:51:46;76.77;;;5.00;;
29026;SDS011;16120;48.608;9.092;2023-04-25T12:55:44;79.10;;;5.20;;
29026;SDS011;16120;48.608;9.092;2023-04-25T12:59:40;77.93;;;5.40;;
29026;SDS011;16120;48.608;9.092;2023-04-25T13:03:35;79.67;;;6.10;;
29026;SDS011;16120;48.608;9.092;2023-04-25T13:07:30;78.60;;;5.80;;
29026;SDS011;16120;48.608;9.092;2023-04-25T13:11:27;77.60;;;6.20;;
29026;SDS011;16120;48.608;9.092;2023-04-25T13:15:22;79.20;;;6.53;;
29026;SDS011;16120;48.608;9.092;2023-04-25T13:19:17;78.37;;;6.50;;
29026;SDS011;16120;48.608;9.092;2023-04-25T13:23:12;78.40;;;6.33;;
29026;SDS011;16120;48.608;9.092;2023-04-25T13:27:09;79.17;;;6.60;;
29026;SDS011;16120;48.608;9.092;2023-04-25T13:31:04;80.03;;;7.03;;
29026;SDS011;16120;48.608;9.092;2023-04-25T13:34:59;78.47;;;6.33;;
29026;SDS011;16120;48.608;9.092;2023-04-25T13:38:55;80.07;;;7.20;;
29026;SDS011;16120;48.608;9.092;2023-04-25T13:42:51;80.57;;;8.07;;
29026;SDS011;16120;48.608;9.092;2023-04-25T13:46:46;80.57;;;7.03;;
29026;SDS011;16120;48.608;9.092;2023-04-25T13:50:42;78.20;;;6.53;;
29026;SDS011;16120;48.608;9.092;2023-04-25T13:54:37;78.88;;;7.45;;
29026;SDS011;16120;48.608;9.092;2023-04-25T13:58:34;80.93;;;7.47;;
29026;SDS011;16120;48.608;9.092;2023-04-25T14:02:29;82.67;;;8.90;;
29026;SDS011;16120;48.608;9.092;2023-04-25T14:06:24;82.40;;;8.40;;
29026;SDS011;16120;48.608;9.092;2023-04-25T14:10:19;80.83;;;8.60;;
29026;SDS011;16120;48.608;9.092;2023-04-25T14:14:16;83.40;;;9.77;;
29026;SDS011;16120;48.608;9.092;2023-04-25T14:18:11;83.70;;;9.40;;
29026;SDS011;16120;48.608;9.092;2023-04-25T14:22:06;83.63;;;8.43;;
29026;SDS011;16120;48.608;9.092;2023-04-25T14:26:01;92.30;;;9.00;;
29026;SDS011;16120;48.608;9.092;2023-04-25T14:29:58;80.97;;;8.17;;
29026;SDS011;16120;48.608;9.092;2023-04-25T14:33:53;82.67;;;8.50;;
29026;SDS011;16120;48.608;9.092;2023-04-25T14:37:48;78.80;;;7.80;;
29026;SDS011;16120;48.608;9.092;2023-04-25T14:41:43;79.43;;;7.85;;
29026;SDS011;16120;48.608;9.092;2023-04-25T14:45:40;80.47;;;8.20;;
29026;SDS011;16120;48.608;9.092;2023-04-25T14:49:35;83.20;;;8.27;;
29026;SDS011;16120;48.608;9.092;2023-04-25T14:53:31;78.05;;;6.70;;
29026;SDS011;16120;48.608;9.092;2023-04-25T14:57:26;80.50;;;7.60;;
29026;SDS011;16120;48.608;9.092;2023-04-25T15:01:22;79.60;;;8.03;;
29026;SDS011;16120;48.608;9.092;2023-04-25T15:05:18;81.00;;;8.60;;
29026;SDS011;16120;48.608;9.092;2023-04-25T15:09:13;79.17;;;7.83;;
29026;SDS011;16120;48.608;9.092;2023-04-25T15:13:08;77.40;;;6.90;;
29026;SDS011;16120;48.608;9.092;2023-04-25T15:17:05;79.97;;;7.57;;
29026;SDS011;16120;48.608;9.092;2023-04-25T15:21:00;76.57;;;6.50;;
29026;SDS011;16120;48.608;9.092;2023-04-25T15:24:55;80.50;;;7.23;;
29026;SDS011;16120;48.608;9.092;2023-04-25T15:28:51;80.35;;;7.95;;
29026;SDS011;16120;48.608;9.092;2023-04-25T15:32:47;77.77;;;6.87;;
29026;SDS011;16120;48.608;9.092;2023-04-25T15:36:43;76.17;;;5.90;;
29026;SDS011;16120;48.608;9.092;2023-04-25T15:40:38;76.47;;;5.63;;
29026;SDS011;16120;48.608;9.092;2023-04-25T15:44:33;77.80;;;6.50;;
29026;SDS011;16120;48.608;9.092;2023-04-25T15:48:30;86.70;;;7.37;;
29026;SDS011;16120;48.608;9.092;2023-04-25T15:52:25;78.33;;;5.90;;
29026;SDS011;16120;48.608;9.092;2023-04-25T15:56:20;75.47;;;4.80;;
29026;SDS011;16120;48.608;9.092;2023-04-25T16:00:16;75.73;;;4.90;;
29026;SDS011;16120;48.608;9.092;2023-04-25T16:04:12;73.87;;;4.70;;
29026;SDS011;16120;48.608;9.092;2023-04-25T16:08:07;76.17;;;5.20;;
29026;SDS011;16120;48.608;9.092;2023-04-25T16:12:03;74.18;;;4.50;;
29026;SDS011;16120;48.608;9.092;2023-04-25T16:15:58;73.73;;;4.07;;
29026;SDS011;16120;48.608;9.092;2023-04-25T16:19:55;73.40;;;3.73;;
29026;SDS011;16120;48.608;9.092;2023-04-25T16:23:50;74.70;;;4.30;;
29026;SDS011;16120;48.608;9.092;2023-04-25T16:27:45;78.17;;;4.47;;
29026;SDS011;16120;48.608;9.092;2023-04-25T16:31:40;77.17;;;6.47;;
29026;SDS011;16120;48.608;9.092;2023-04-25T16:35:37;75.77;;;4.97;;
29026;SDS011;16120;48.608;9.092;2023-04-25T16:39:32;75.00;;;4.80;;
29026;SDS011;16120;48.608;9.092;2023-04-25T16:43:27;78.13;;;5.40;;
29026;SDS011;16120;48.608;9.092;2023-04-25T16:47:23;75.17;;;4.80;;
29026;SDS011;16120;48.608;9.092;2023-04-25T16:51:19;76.60;;;4.97;;
29026;SDS011;16120;48.608;9.092;2023-04-25T16:55:14;75.30;;;4.77;;
29026;SDS011;16120;48.608;9.092;2023-04-25T16:59:09;75.33;;;5.17;;
29026;SDS011;16120;48.608;9.092;2023-04-25T17:03:05;75.20;;;5.00;;
29026;SDS011;16120;48.608;9.092;2023-04-25T17:07:01;76.10;;;4.97;;
29026;SDS011;16120;48.608;9.092;2023-04-25T17:10:56;77.67;;;5.60;;
29026;SDS011;16120;48.608;9.092;2023-04-25T17:14:52;77.72;;;5.35;;
29026;SDS011;16120;48.608;9.092;2023-04-25T17:18:47;75.90;;;5.90;;
29026;SDS011;16120;48.608;9.092;2023-04-25T17:22:43;80.32;;;6.03;;
29026;SDS011;16120;48.608;9.092;2023-04-25T17:26:39;79.03;;;6.37;;
29026;SDS011;16120;48.608;9.092;2023-04-25T17:30:34;78.67;;;6.30;;
29026;SDS011;16120;48.608;9.092;2023-04-25T17:34:29;76.87;;;6.27;;
29026;SDS011;16120;48.608;9.092;2023-04-25T17:38:26;79.00;;;6.53;;
29026;SDS011;16120;48.608;9.092;2023-04-25T17:42:21;80.20;;;6.60;;
29026;SDS011;16120;48.608;9.092;2023-04-25T17:46:16;79.40;;;6.57;;
29026;SDS011;16120;48.608;9.092;2023-04-25T17:50:11;83.47;;;7.50;;
29026;SDS011;16120;48.608;9.092;2023-04-25T17:54:08;82.50;;;7.87;;
29026;SDS011;16120;48.608;9.092;2023-04-25T17:58:03;78.17;;;7.20;;
29026;SDS011;16120;48.608;9.092;2023-04-25T18:01:58;78.97;;;7.20;;
29026;SDS011;16120;48.608;9.092;2023-04-25T18:05:54;80.70;;;7.80;;
29026;SDS011;16120;48.608;9.092;2023-04-25T18:09:50;79.60;;;7.67;;
29026;SDS011;16120;48.608;9.092;2023-04-25T18:13:45;80.60;;;7.30;;
29026;SDS011;16120;48.608;9.092;2023-04-25T18:17:41;78.50;;;7.00;;
29026;SDS011;16120;48.608;9.092;2023-04-25T18:21:36;80.90;;;8.10;;
29026;SDS011;16120;48.608;9.092;2023-04-25T18:25:33;84.10;;;7.43;;
29026;SDS011;16120;48.608;9.092;2023-04-25T18:29:28;79.70;;;7.33;;
29026;SDS011;16120;48.608;9.092;2023-04-25T18:33:23;80.07;;;7.73;;
29026;SDS011;16120;48.608;9.092;2023-04-25T18:37:18;79.90;;;7.30;;
29026;SDS011;16120;48.608;9.092;2023-04-25T18:41:18;79.43;;;7.80;;
29026;SDS011;16120;48.608;9.092;2023-04-25T18:45:13;89.87;;;7.30;;
29026;SDS011;16120;48.608;9.092;2023-04-25T18:49:08;80.07;;;7.90;;
29026;SDS011;16120;48.608;9.092;2023-04-25T18:53:04;84.63;;;7.90;;
29026;SDS011;16120;48.608;9.092;2023-04-25T18:57:00;83.40;;;7.87;;
29026;SDS011;16120;48.608;9.092;2023-04-25T19:00:56;79.70;;;7.10;;
29026;SDS011;16120;48.608;9.092;2023-04-25T19:04:51;81.53;;;6.88;;
29026;SDS011;16120;48.608;9.092;2023-04-25T19:08:46;79.47;;;6.72;;
29026;SDS011;16120;48.608;9.092;2023-04-25T19:12:43;78.33;;;6.27;;
29026;SDS011;16120;48.608;9.092;2023-04-25T19:16:38;78.23;;;6.80;;
29026;SDS011;16120;48.608;9.092;2023-04-25T19:20:33;79.60;;;6.50;;
29026;SDS011;16120;48.608;9.092;2023-04-25T19:24:28;78.53;;;6.33;;
29026;SDS011;16120;48.608;9.092;2023-04-25T19:28:25;86.57;;;10.33;;
29026;SDS011;16120;48.608;9.092;2023-04-25T19:32:20;86.70;;;11.43;;
29026;SDS011;16120;48.608;9.092;2023-04-25T19:36:15;82.60;;;7.10;;
29026;SDS011;16120;48.608;9.092;2023-04-25T19:40:11;78.83;;;6.93;;
29026;SDS011;16120;48.608;9.092;2023-04-25T19:44:08;79.27;;;6.13;;
29026;SDS011;16120;48.608;9.092;2023-04-25T19:48:03;86.33;;;6.40;;
29026;SDS011;16120;48.608;9.092;2023-04-25T19:51:59;77.50;;;5.40;;
29026;SDS011;16120;48.608;9.092;2023-04-25T19:55:54;79.80;;;6.20;;
29026;SDS011;16120;48.608;9.092;2023-04-25T19:59:50;80.23;;;6.77;;
29026;SDS011;16120;48.608;9.092;2023-04-25T20:03:46;78.00;;;6.50;;
29026;SDS011;16120;48.608;9.092;2023-04-25T20:07:41;87.70;;;8.10;;
29026;SDS011;16120;48.608;9.092;2023-04-25T20:11:36;86.07;;;9.13;;
29026;SDS011;16120;48.608;9.092;2023-04-25T20:15:33;82.70;;;8.93;;
29026;SDS011;16120;48.608;9.092;2023-04-25T20:19:28;80.13;;;7.30;;
29026;SDS011;16120;48.608;9.092;2023-04-25T20:23:23;85.30;;;8.23;;
29026;SDS011;16120;48.608;9.092;2023-04-25T20:27:19;86.40;;;8.90;;
29026;SDS011;16120;48.608;9.092;2023-04-25T20:31:16;83.03;;;8.73;;
29026;SDS011;16120;48.608;9.092;2023-04-25T20:35:11;79.47;;;7.27;;
29026;SDS011;16120;48.608;9.092;2023-04-25T20:39:06;84.60;;;8.07;;
29026;SDS011;16120;48.608;9.092;2023-04-25T20:43:01;84.43;;;8.60;;
29026;SDS011;16120;48.608;9.092;2023-04-25T20:46:58;82.97;;;8.03;;
29026;SDS011;16120;48.608;9.092;2023-04-25T20:50:53;81.43;;;7.50;;
29026;SDS011;16120;48.608;9.092;2023-04-25T20:54:48;81.00;;;6.87;;
29026;SDS011;16120;48.608;9.092;2023-04-25T20:58:44;81.67;;;7.50;;
29026;SDS011;16120;48.608;9.092;2023-04-25T21:02:40;81.00;;;6.53;;
29026;SDS011;16120;48.608;9.092;2023-04-25T21:06:35;80.67;;;6.77;;
29026;SDS011;16120;48.608;9.092;2023-04-25T21:10:31;82.27;;;6.63;;
29026;SDS011;16120;48.608;9.092;2023-04-25T21:14:26;79.17;;;6.87;;
29026;SDS011;16120;48.608;9.092;2023-04-25T21:18:22;83.73;;;8.37;;
29026;SDS011;16120;48.608;9.092;2023-04-25T21:22:18;79.57;;;7.03;;
29026;SDS011;16120;48.608;9.092;2023-04-25T21:26:13;79.87;;;6.40;;
29026;SDS011;16120;48.608;9.092;2023-04-25T21:30:08;79.60;;;6.97;;
29026;SDS011;16120;48.608;9.092;2023-04-25T21:34:05;79.57;;;6.20;;
29026;SDS011;16120;48.608;9.092;2023-04-25T21:38:00;79.30;;;7.10;;
29026;SDS011;16120;48.608;9.092;2023-04-25T21:41:56;79.97;;;7.57;;
29026;SDS011;16120;48.608;9.092;2023-04-25T21:45:51;78.60;;;7.20;;
29026;SDS011;16120;48.608;9.092;2023-04-25T21:49:47;78.67;;;6.27;;
29026;SDS011;16120;48.608;9.092;2023-04-25T21:53:43;81.30;;;6.17;;
29026;SDS011;16120;48.608;9.092;2023-04-25T21:57:38;78.50;;;6.10;;
29026;SDS011;16120;48.608;9.092;2023-04-25T22:01:33;81.17;;;6.10;;
29026;SDS011;16120;48.608;9.092;2023-04-25T22:05:30;78.57;;;6.37;;
29026;SDS011;16120;48.608;9.092;2023-04-25T22:09:25;84.90;;;8.40;;
29026;SDS011;16120;48.608;9.092;2023-04-25T22:13:20;87.53;;;8.23;;
29026;SDS011;16120;48.608;9.092;2023-04-25T22:17:15;83.00;;;8.10;;
29026;SDS011;16120;48.608;9.092;2023-04-25T22:21:12;78.60;;;6.90;;
29026;SDS011;16120;48.608;9.092;2023-04-25T22:25:07;79.93;;;6.10;;
29026;SDS011;16120;48.608;9.092;2023-04-25T22:29:02;83.50;;;6.77;;
29026;SDS011;16120;48.608;9.092;2023-04-25T22:32:58;81.50;;;6.53;;
29026;SDS011;16120;48.608;9.092;2023-04-25T22:36:54;83.50;;;7.30;;
29026;SDS011;16120;48.608;9.092;2023-04-25T22:40:50;83.77;;;7.90;;
29026;SDS011;16120;48.608;9.092;2023-04-25T22:44:45;79.80;;;6.20;;
29026;SDS011;16120;48.608;9.092;2023-04-25T22:48:40;79.27;;;6.47;;
29026;SDS011;16120;48.608;9.092;2023-04-25T22:52:39;81.97;;;6.90;;
29026;SDS011;16120;48.608;9.092;2023-04-25T22:56:35;84.50;;;7.07;;
29026;SDS011;16120;48.608;9.092;2023-04-25T23:00:30;78.47;;;6.60;;
29026;SDS011;16120;48.608;9.092;2023-04-25T23:04:25;78.37;;;6.27;;
29026;SDS011;16120;48.608;9.092;2023-04-25T23:08:22;80.47;;;6.90;;
29026;SDS011;16120;48.608;9.092;2023-04-25T23:12:17;77.97;;;5.90;;
29026;SDS011;16120;48.608;9.092;2023-04-25T23:16:12;80.68;;;6.35;;
29026;SDS011;16120;48.608;9.092;2023-04-25T23:20:08;79.60;;;6.30;;